Time;durP1;ratioP1;P1;durP2;ratioP2;P2;SDS_P1;SDS_P2;PMS_P1;PMS_P2;Temp;Humidity;BMP_temperature;BMP_pressure;BME280_temperature;BME280_humidity;BME280_pressure;Samples;Min_cycle;Max_cycle;Signal;HPM_P1;HPM_P2
2022/01/10 00:00:23;;;;;;;25.75;6.75;;;3.30;99.90;;;;;;5128907;27;20054;-80
2022/01/10 00:02:49;;;;;;;23.50;7.07;;;3.30;99.90;;;;;;5130111;27;20046;-80
2022/01/10 00:05:16;;;;;;;17.33;6.28;;;3.30;99.90;;;;;;5128356;27;20050;-79
2022/01/10 00:07:43;;;;;;;26.08;6.85;;;3.20;99.90;;;;;;5122008;28;20054;-79
2022/01/10 00:10:09;;;;;;;24.60;7.68;;;3.30;99.90;;;;;;5136518;27;20062;-80
2022/01/10 00:12:36;;;;;;;21.58;6.28;;;3.30;99.90;;;;;;5133144;27;20047;-79
2022/01/10 00:15:02;;;;;;;16.65;7.05;;;3.40;99.90;;;;;;5132148;27;20448;-79
2022/01/10 00:17:29;;;;;;;21.08;5.45;;;3.50;99.90;;;;;;5117018;28;20390;-79
2022/01/10 00:19:55;;;;;;;19.65;6.57;;;3.40;99.90;;;;;;5142664;27;20397;-79
2022/01/10 00:22:23;;;;;;;29.55;7.88;;;3.30;99.90;;;;;;5151360;27;20389;-79
2022/01/10 00:24:49;;;;;;;30.05;7.32;;;3.30;99.90;;;;;;5151344;27;20054;-80
2022/01/10 00:27:16;;;;;;;28.88;7.07;;;3.30;99.90;;;;;;5118092;27;20057;-80
2022/01/10 00:29:42;;;;;;;18.02;6.82;;;3.30;99.90;;;;;;5141051;27;20047;-79
2022/01/10 00:32:09;;;;;;;15.95;6.53;;;3.30;99.90;;;;;;5136393;27;20046;-80
2022/01/10 00:34:35;;;;;;;12.98;6.20;;;3.30;99.90;;;;;;5137781;27;20043;-80
2022/01/10 00:37:02;;;;;;;20.42;5.90;;;3.20;99.90;;;;;;5126785;27;20043;-79
2022/01/10 00:39:29;;;;;;;25.17;8.23;;;3.20;99.90;;;;;;5155012;27;20050;-80
2022/01/10 00:41:56;;;;;;;14.95;5.60;;;3.20;99.90;;;;;;5135029;27;20042;-80
2022/01/10 00:44:25;;;;;;;22.55;7.80;;;3.30;99.90;;;;;;5153691;27;20069;-80
2022/01/10 00:46:52;;;;;;;18.80;6.55;;;3.50;99.90;;;;;;5146657;27;20142;-80
2022/01/10 00:49:19;;;;;;;23.10;5.80;;;3.50;99.90;;;;;;5126199;27;20039;-79
2022/01/10 00:51:45;;;;;;;21.65;7.55;;;3.40;99.90;;;;;;5129087;27;20058;-79
2022/01/10 00:54:12;;;;;;;35.03;7.05;;;3.30;99.90;;;;;;5151641;27;20054;-80
2022/01/10 00:56:38;;;;;;;20.00;7.10;;;3.30;99.90;;;;;;5125896;27;20054;-80
2022/01/10 00:59:05;;;;;;;27.25;7.30;;;3.30;99.90;;;;;;5117349;27;20058;-80
2022/01/10 01:01:31;;;;;;;12.75;6.32;;;3.30;99.90;;;;;;5118502;27;20054;-79
2022/01/10 01:03:58;;;;;;;17.55;6.38;;;3.30;99.90;;;;;;5127271;27;20042;-80
2022/01/10 01:06:24;;;;;;;22.80;7.30;;;3.20;99.90;;;;;;5153677;27;20042;-79
2022/01/10 01:08:57;;;;;;;19.27;6.30;;;3.30;99.90;;;;;;5128650;27;20049;-80
2022/01/10 01:14:08;;;;;;;24.38;8.43;;;3.40;99.90;;;;;;5124670;27;20138;-80
2022/01/10 01:16:56;;;;;;;24.70;7.47;;;3.20;99.90;;;;;;5122637;27;20043;-80
2022/01/10 01:24:41;;;;;;;20.20;7.38;;;3.10;99.90;;;;;;5133303;27;20042;-80
2022/01/10 01:27:07;;;;;;;14.25;5.95;;;3.00;99.90;;;;;;5139838;27;20047;-80
2022/01/10 01:29:34;;;;;;;16.35;7.05;;;2.90;99.90;;;;;;5127181;27;20051;-79
2022/01/10 01:32:01;;;;;;;20.80;7.20;;;2.80;99.90;;;;;;5142726;27;20047;-79
2022/01/10 01:34:27;;;;;;;12.73;7.05;;;2.80;99.90;;;;;;5120458;27;20055;-80
2022/01/10 01:36:55;;;;;;;13.25;7.63;;;2.80;99.90;;;;;;5142331;27;20126;-81
2022/01/10 01:39:23;;;;;;;21.17;7.30;;;2.80;99.90;;;;;;5133551;27;20062;-80
2022/01/10 01:41:50;;;;;;;14.98;6.07;;;2.70;99.90;;;;;;5124222;27;20050;-80
2022/01/10 01:44:17;;;;;;;20.02;6.22;;;2.60;99.90;;;;;;5120933;27;20049;-80
2022/01/10 01:46:43;;;;;;;20.58;7.38;;;2.50;99.90;;;;;;5130468;27;20046;-80
2022/01/10 01:49:10;;;;;;;16.35;6.88;;;2.50;99.90;;;;;;5126696;27;20046;-81
2022/01/10 01:51:36;;;;;;;26.00;6.78;;;2.40;99.90;;;;;;5124509;27;20043;-80
2022/01/10 01:54:03;;;;;;;14.18;5.88;;;2.40;99.90;;;;;;5125181;27;20053;-81
2022/01/10 01:56:29;;;;;;;19.95;6.57;;;2.30;99.90;;;;;;5122587;27;20043;-80
2022/01/10 01:58:56;;;;;;;16.33;6.70;;;2.20;99.90;;;;;;5155242;27;20047;-80
2022/01/10 02:01:22;;;;;;;15.23;5.78;;;2.10;99.90;;;;;;5164661;27;20110;-80
2022/01/10 02:03:49;;;;;;;21.70;5.47;;;2.10;99.90;;;;;;5135937;27;20043;-80
2022/01/10 02:06:15;;;;;;;14.70;5.40;;;2.10;99.90;;;;;;5125034;27;20043;-80
2022/01/10 02:08:42;;;;;;;23.30;6.18;;;2.00;99.90;;;;;;5120065;27;20051;-81
2022/01/10 02:11:09;;;;;;;35.10;6.75;;;2.10;99.90;;;;;;5127834;27;20042;-80
2022/01/10 02:13:35;;;;;;;24.70;6.53;;;2.00;99.90;;;;;;5142456;27;20050;-80
2022/01/10 02:16:04;;;;;;;27.98;6.57;;;2.00;99.90;;;;;;5126916;27;20082;-80
2022/01/10 02:18:31;;;;;;;17.17;6.15;;;2.10;99.90;;;;;;5116866;27;20047;-80
2022/01/10 02:21:00;;;;;;;27.40;6.88;;;2.10;99.90;;;;;;5123027;27;20441;-80
2022/01/10 02:23:26;;;;;;;14.00;5.78;;;2.00;99.90;;;;;;5119263;27;20039;-80
2022/01/10 02:25:53;;;;;;;23.13;6.07;;;2.00;99.90;;;;;;5121507;27;20052;-80
2022/01/10 02:28:20;;;;;;;7.30;4.22;;;2.00;99.90;;;;;;5129049;27;20362;-80
2022/01/10 02:30:46;;;;;;;12.40;5.50;;;2.00;99.90;;;;;;5126559;27;20405;-80
2022/01/10 02:33:13;;;;;;;17.65;5.63;;;1.90;99.90;;;;;;5119873;27;20039;-80
2022/01/10 02:35:45;;;;;;;15.18;5.20;;;1.80;99.90;;;;;;5130768;27;20044;-80
2022/01/10 02:38:11;;;;;;;11.27;5.10;;;1.90;99.90;;;;;;5130279;27;20090;-80
2022/01/10 02:40:38;;;;;;;14.82;5.20;;;1.80;99.90;;;;;;5139270;27;20054;-80
2022/01/10 02:43:04;;;;;;;11.15;4.90;;;1.80;99.90;;;;;;5119825;27;20046;-81
2022/01/10 02:45:31;;;;;;;11.90;5.43;;;1.80;99.90;;;;;;5123699;27;20054;-80
2022/01/10 02:47:58;;;;;;;15.20;5.35;;;1.90;99.90;;;;;;5122928;27;20051;-80
2022/01/10 02:50:24;;;;;;;10.30;5.57;;;1.80;99.90;;;;;;5124586;27;20092;-80
2022/01/10 02:52:51;;;;;;;20.42;5.68;;;1.80;99.90;;;;;;5124718;27;20055;-80
2022/01/10 02:55:17;;;;;;;15.77;5.60;;;1.80;99.90;;;;;;5122170;27;20062;-80
2022/01/10 02:57:44;;;;;;;16.60;5.80;;;1.80;99.90;;;;;;5119106;27;20054;-79
2022/01/10 03:00:10;;;;;;;16.77;6.57;;;1.80;99.90;;;;;;5123439;27;20135;-79
2022/01/10 03:02:37;;;;;;;11.98;5.85;;;1.80;99.90;;;;;;5134293;27;20053;-80
2022/01/10 03:05:04;;;;;;;25.27;6.10;;;1.70;99.90;;;;;;5132281;27;20571;-80
2022/01/10 03:07:30;;;;;;;16.83;6.57;;;1.70;99.90;;;;;;5131173;27;20050;-80
2022/01/10 03:09:57;;;;;;;23.67;6.82;;;1.60;99.90;;;;;;5124949;27;20055;-80
2022/01/10 03:12:23;;;;;;;15.77;6.13;;;1.60;99.90;;;;;;5130720;27;20039;-80
2022/01/10 03:14:50;;;;;;;34.85;8.00;;;1.60;99.90;;;;;;5116978;28;20049;-80
2022/01/10 03:17:16;;;;;;;16.67;5.50;;;1.50;99.90;;;;;;5145212;27;20054;-80
2022/01/10 03:19:43;;;;;;;16.67;6.57;;;1.50;99.90;;;;;;5123730;27;20054;-80
2022/01/10 03:22:09;;;;;;;11.65;6.63;;;1.50;99.90;;;;;;5141886;27;20054;-81
2022/01/10 03:24:36;;;;;;;11.10;5.50;;;1.50;99.90;;;;;;5131560;27;20047;-80
2022/01/10 03:27:02;;;;;;;15.55;5.60;;;1.50;99.90;;;;;;5126298;27;20138;-81
2022/01/10 03:29:29;;;;;;;18.08;6.43;;;1.40;99.90;;;;;;5116526;27;20050;-79
2022/01/10 03:31:55;;;;;;;18.13;5.78;;;1.30;99.90;;;;;;5121586;28;20044;-80
2022/01/10 03:34:22;;;;;;;17.02;7.60;;;1.30;99.90;;;;;;5121535;27;20043;-80
2022/01/10 03:36:49;;;;;;;17.63;7.15;;;1.30;99.90;;;;;;5122541;28;20057;-80
2022/01/10 03:39:15;;;;;;;17.17;6.85;;;1.20;99.90;;;;;;5115982;27;20042;-80
2022/01/10 03:41:42;;;;;;;19.25;6.45;;;1.20;99.90;;;;;;5128437;27;20063;-80
2022/01/10 03:44:08;;;;;;;13.02;7.40;;;1.20;99.90;;;;;;5119967;27;20062;-80
2022/01/10 03:46:35;;;;;;;12.77;6.22;;;1.20;99.90;;;;;;5121843;27;20128;-80
2022/01/10 03:49:01;;;;;;;17.25;6.43;;;1.20;99.90;;;;;;5126468;27;20047;-79
2022/01/10 03:51:28;;;;;;;15.07;6.13;;;1.20;99.90;;;;;;5115922;27;20066;-80
2022/01/10 03:53:54;;;;;;;14.07;6.32;;;1.20;99.90;;;;;;5121398;28;20066;-80
2022/01/10 03:56:21;;;;;;;20.58;6.28;;;1.10;99.90;;;;;;5145290;27;20047;-80
2022/01/10 03:58:47;;;;;;;16.83;5.93;;;1.10;99.90;;;;;;5124403;27;20043;-80
2022/01/10 04:01:14;;;;;;;21.98;8.32;;;1.10;99.90;;;;;;5126654;27;20050;-80
2022/01/10 04:03:41;;;;;;;19.65;7.15;;;1.00;99.90;;;;;;5126963;27;20054;-80
2022/01/10 04:06:07;;;;;;;17.75;7.60;;;1.10;99.90;;;;;;5134390;27;20066;-79
2022/01/10 04:08:34;;;;;;;29.80;7.47;;;1.10;99.90;;;;;;5123029;27;20074;-79
2022/01/10 04:11:01;;;;;;;18.27;6.30;;;1.10;99.90;;;;;;5119032;27;20045;-79
2022/01/10 04:13:27;;;;;;;24.50;6.45;;;1.20;99.90;;;;;;5128138;27;20039;-79
2022/01/10 04:15:54;;;;;;;21.60;7.75;;;1.20;99.90;;;;;;5127058;27;20051;-78
2022/01/10 04:18:20;;;;;;;24.27;8.02;;;1.20;99.90;;;;;;5128838;27;20054;-80
2022/01/10 04:20:47;;;;;;;18.23;7.38;;;1.20;99.90;;;;;;5131598;27;20058;-80
2022/01/10 04:23:13;;;;;;;18.50;7.95;;;1.20;99.90;;;;;;5126490;27;20046;-80
2022/01/10 04:25:40;;;;;;;24.60;6.93;;;1.20;99.90;;;;;;5146823;27;20062;-80
2022/01/10 04:28:06;;;;;;;28.58;8.10;;;1.20;99.90;;;;;;5143832;27;20058;-80
2022/01/10 04:30:33;;;;;;;18.27;7.63;;;1.30;99.90;;;;;;5130834;27;20058;-81
2022/01/10 04:33:00;;;;;;;20.90;8.35;;;1.20;99.90;;;;;;5131463;27;20049;-80
2022/01/10 04:35:27;;;;;;;19.33;8.00;;;1.20;99.90;;;;;;5136368;27;20125;-80
2022/01/10 04:37:53;;;;;;;20.73;8.65;;;1.20;99.90;;;;;;5132220;27;20047;-79
2022/01/10 04:40:20;;;;;;;24.05;9.10;;;1.30;99.90;;;;;;5135134;27;20062;-81
2022/01/10 04:42:46;;;;;;;18.25;8.68;;;1.20;99.90;;;;;;5123044;27;20047;-80
2022/01/10 04:45:13;;;;;;;25.55;9.40;;;1.30;99.90;;;;;;5117610;27;20462;-79
2022/01/10 04:47:40;;;;;;;23.33;9.43;;;1.30;99.90;;;;;;5116522;27;20059;-80
2022/01/10 04:50:28;;;;;;;28.00;10.00;;;1.30;99.90;;;;;;5128741;27;20134;-80
2022/01/10 04:52:55;;;;;;;19.77;9.93;;;1.30;99.90;;;;;;5130411;27;20051;-80
2022/01/10 04:55:21;;;;;;;20.63;10.20;;;1.30;99.90;;;;;;5130274;27;20054;-80
2022/01/10 04:57:48;;;;;;;24.48;9.55;;;1.30;99.90;;;;;;5123738;27;20050;-80
2022/01/10 05:00:14;;;;;;;19.73;9.60;;;1.30;99.90;;;;;;5124966;27;20047;-80
2022/01/10 05:02:41;;;;;;;19.50;10.23;;;1.20;99.90;;;;;;5127106;27;20069;-80
2022/01/10 05:05:08;;;;;;;24.90;9.38;;;1.30;99.90;;;;;;5126709;27;20068;-79
2022/01/10 05:07:34;;;;;;;22.75;9.40;;;1.20;99.90;;;;;;5134483;27;20061;-80
2022/01/10 05:10:01;;;;;;;29.75;9.90;;;1.20;99.90;;;;;;5116981;27;20126;-79
2022/01/10 05:12:28;;;;;;;27.38;10.13;;;1.20;99.90;;;;;;5133739;27;20055;-80
2022/01/10 05:14:55;;;;;;;33.22;11.05;;;1.30;99.90;;;;;;5130894;27;20130;-79
2022/01/10 05:17:24;;;;;;;20.58;10.40;;;1.20;99.90;;;;;;5117083;27;20083;-81
2022/01/10 05:19:50;;;;;;;20.58;10.82;;;1.20;99.90;;;;;;5118994;27;20053;-79
2022/01/10 05:22:17;;;;;;;31.88;11.15;;;1.20;99.90;;;;;;5127625;27;20047;-80
2022/01/10 05:24:43;;;;;;;26.52;12.02;;;1.20;99.90;;;;;;5123534;27;20497;-80
2022/01/10 05:27:10;;;;;;;31.77;12.35;;;1.20;99.90;;;;;;5122561;27;20512;-79
2022/01/10 05:29:36;;;;;;;26.73;11.43;;;1.10;99.90;;;;;;5116659;27;20051;-78
2022/01/10 05:32:03;;;;;;;22.85;10.70;;;1.10;99.90;;;;;;5123076;27;20047;-79
2022/01/10 05:34:30;;;;;;;35.83;11.98;;;1.10;99.90;;;;;;5121231;27;20048;-80
2022/01/10 05:36:56;;;;;;;29.55;11.93;;;1.10;99.90;;;;;;5119394;27;20443;-81
2022/01/10 05:39:23;;;;;;;26.27;12.35;;;1.10;99.90;;;;;;5126357;27;20389;-79
2022/01/10 05:41:49;;;;;;;24.50;11.70;;;1.10;99.90;;;;;;5136012;27;20055;-79
2022/01/10 05:44:16;;;;;;;26.02;11.63;;;1.10;99.90;;;;;;5123473;27;20043;-79
2022/01/10 05:46:43;;;;;;;31.98;11.98;;;1.10;99.90;;;;;;5128695;27;20039;-77
2022/01/10 05:49:11;;;;;;;23.90;11.43;;;1.00;99.90;;;;;;5122457;27;20097;-80
2022/01/10 05:51:38;;;;;;;28.48;10.30;;;0.90;99.90;;;;;;5125523;27;20444;-79
2022/01/10 05:54:05;;;;;;;24.60;10.40;;;0.80;99.90;;;;;;5148316;27;20051;-80
2022/01/10 05:56:32;;;;;;;22.27;10.60;;;0.70;99.90;;;;;;5116107;27;20039;-80
2022/01/10 05:58:58;;;;;;;16.15;9.60;;;0.70;99.90;;;;;;5133579;27;20061;-80
2022/01/10 06:01:25;;;;;;;14.65;9.63;;;0.70;99.90;;;;;;5143924;27;20046;-80
2022/01/10 06:03:51;;;;;;;33.55;11.48;;;0.60;99.90;;;;;;5133731;27;20046;-80
2022/01/10 06:06:18;;;;;;;23.10;11.73;;;0.60;99.90;;;;;;5126549;27;20043;-80
2022/01/10 06:08:44;;;;;;;25.25;11.15;;;0.60;99.90;;;;;;5121773;27;20050;-79
2022/01/10 06:11:11;;;;;;;28.08;11.95;;;0.60;99.90;;;;;;5133603;27;20047;-80
2022/01/10 06:13:37;;;;;;;21.50;10.38;;;0.50;99.90;;;;;;5121984;27;20050;-80
2022/01/10 06:16:05;;;;;;;21.58;11.65;;;0.50;99.90;;;;;;5131327;27;20042;-80
2022/01/10 06:18:31;;;;;;;25.13;10.30;;;0.60;99.90;;;;;;5134317;27;20051;-81
2022/01/10 06:20:58;;;;;;;22.67;11.82;;;0.50;99.90;;;;;;5129964;27;20051;-80
2022/01/10 06:23:25;;;;;;;17.65;12.05;;;0.50;99.90;;;;;;5115468;27;20047;-81
2022/01/10 06:25:52;;;;;;;19.17;10.45;;;0.50;99.90;;;;;;5114787;27;20508;-80
2022/01/10 06:28:18;;;;;;;23.75;12.15;;;0.50;99.90;;;;;;5115464;27;20047;-80
2022/01/10 06:30:45;;;;;;;20.55;11.40;;;0.50;99.90;;;;;;5133344;27;20084;-80
2022/01/10 06:33:11;;;;;;;24.90;11.80;;;0.50;99.90;;;;;;5133404;27;20046;-81
2022/01/10 06:35:38;;;;;;;27.85;12.90;;;0.40;99.90;;;;;;5115880;27;20046;-80
2022/01/10 06:38:04;;;;;;;23.63;11.52;;;0.40;99.90;;;;;;5134121;27;20054;-79
2022/01/10 06:40:31;;;;;;;20.95;10.45;;;0.40;99.90;;;;;;5128824;27;20047;-81
2022/01/10 06:42:58;;;;;;;29.83;13.05;;;0.40;99.90;;;;;;5124287;27;20050;-81
2022/01/10 06:45:24;;;;;;;27.83;12.43;;;0.40;99.90;;;;;;5122450;27;20164;-80
2022/01/10 06:47:51;;;;;;;23.10;12.27;;;0.40;99.90;;;;;;5131803;27;20050;-79
2022/01/10 06:50:17;;;;;;;24.55;12.77;;;0.40;99.90;;;;;;5122953;27;20043;-80
2022/01/10 06:52:44;;;;;;;29.77;12.23;;;0.40;99.90;;;;;;5127853;27;20047;-82
2022/01/10 06:55:10;;;;;;;28.67;12.38;;;0.40;99.90;;;;;;5135907;27;20047;-80
2022/01/10 06:57:37;;;;;;;25.20;12.15;;;0.40;99.90;;;;;;5134713;27;20045;-80
2022/01/10 07:00:03;;;;;;;30.90;13.02;;;0.30;99.90;;;;;;5134324;27;20053;-80
2022/01/10 07:02:30;;;;;;;39.80;13.73;;;0.30;99.90;;;;;;5138630;27;20051;-80
2022/01/10 07:04:56;;;;;;;23.98;12.63;;;0.30;99.90;;;;;;5132407;27;20043;-81
2022/01/10 07:07:23;;;;;;;26.08;13.20;;;0.30;99.90;;;;;;5131876;27;20050;-79
2022/01/10 07:09:49;;;;;;;23.58;12.63;;;0.30;99.90;;;;;;5132707;27;20466;-80
2022/01/10 07:12:16;;;;;;;22.80;12.45;;;0.30;99.90;;;;;;5131159;27;20047;-80
2022/01/10 07:14:43;;;;;;;25.17;12.73;;;0.30;99.90;;;;;;5130646;27;20062;-80
2022/01/10 07:17:09;;;;;;;28.58;13.18;;;0.20;99.90;;;;;;5130360;27;20121;-80
2022/01/10 07:19:36;;;;;;;19.50;12.30;;;0.10;99.90;;;;;;5132450;27;20078;-81
2022/01/10 07:22:03;;;;;;;35.05;13.48;;;0.10;99.90;;;;;;5147456;27;20043;-81
2022/01/10 07:24:29;;;;;;;27.15;12.82;;;0.00;99.90;;;;;;5130067;27;20047;-81
2022/01/10 07:26:56;;;;;;;18.73;11.98;;;0.00;99.90;;;;;;5131289;27;20150;-80
2022/01/10 07:29:22;;;;;;;29.23;12.55;;;0.00;99.90;;;;;;5151829;27;20043;-80
2022/01/10 07:31:49;;;;;;;25.15;11.90;;;0.00;99.90;;;;;;5130880;27;20042;-80
2022/01/10 07:34:16;;;;;;;24.75;14.23;;;0.00;99.90;;;;;;5133011;27;20043;-80
2022/01/10 07:36:42;;;;;;;31.42;12.15;;;-0.10;99.90;;;;;;5135473;27;20477;-81
2022/01/10 07:39:10;;;;;;;23.45;11.80;;;-0.10;99.90;;;;;;5134155;27;20054;-80
2022/01/10 07:41:37;;;;;;;26.77;13.15;;;-0.20;99.90;;;;;;5135451;27;20096;-80
2022/01/10 07:44:03;;;;;;;20.77;12.07;;;-0.20;99.90;;;;;;5134534;27;20050;-80
2022/01/10 07:46:30;;;;;;;17.63;11.10;;;-0.20;99.90;;;;;;5130904;27;20062;-80
2022/01/10 07:48:56;;;;;;;27.23;13.57;;;-0.20;99.90;;;;;;5135412;27;20405;-82
2022/01/10 07:51:23;;;;;;;21.20;11.52;;;-0.20;99.90;;;;;;5136732;27;20070;-80
2022/01/10 07:53:49;;;;;;;29.30;12.25;;;-0.30;99.90;;;;;;5132225;27;20039;-80
2022/01/10 07:56:16;;;;;;;26.50;12.93;;;-0.30;99.90;;;;;;5135430;27;20481;-80
2022/01/10 07:58:42;;;;;;;26.85;13.52;;;-0.30;99.90;;;;;;5131886;27;20484;-80
2022/01/10 08:01:09;;;;;;;21.42;12.57;;;-0.40;99.90;;;;;;5131381;27;20126;-80
2022/01/10 08:03:36;;;;;;;22.88;13.15;;;-0.30;99.90;;;;;;5137253;27;20049;-81
2022/01/10 08:06:02;;;;;;;26.80;12.65;;;-0.30;99.90;;;;;;5135566;27;20034;-80
2022/01/10 08:08:29;;;;;;;27.17;12.52;;;-0.30;99.90;;;;;;5132491;27;20050;-80
2022/01/10 08:10:55;;;;;;;21.90;11.90;;;-0.20;99.90;;;;;;5135362;27;20053;-80
2022/01/10 08:13:23;;;;;;;28.00;13.90;;;-0.30;99.90;;;;;;5134635;27;20378;-82
2022/01/10 08:15:49;;;;;;;24.92;13.15;;;-0.30;99.90;;;;;;5131588;27;20488;-82
2022/01/10 08:18:17;;;;;;;25.30;12.43;;;-0.30;99.90;;;;;;5130845;27;20036;-81
2022/01/10 08:20:43;;;;;;;21.83;12.38;;;-0.30;99.90;;;;;;5136953;27;20054;-81
2022/01/10 08:23:10;;;;;;;22.05;12.10;;;-0.20;99.90;;;;;;5150152;27;20046;-82
2022/01/10 08:25:36;;;;;;;22.65;13.18;;;-0.20;99.90;;;;;;5134666;27;20043;-81
2022/01/10 08:28:03;;;;;;;26.65;12.40;;;-0.10;99.90;;;;;;5133995;27;20657;-81
2022/01/10 08:30:29;;;;;;;30.05;12.63;;;-0.10;99.90;;;;;;5137221;27;20386;-82
2022/01/10 08:32:56;;;;;;;22.05;11.88;;;-0.20;99.90;;;;;;5133427;27;20074;-82
2022/01/10 08:35:23;;;;;;;34.33;14.45;;;-0.20;99.90;;;;;;5132828;27;20051;-82
2022/01/10 08:37:50;;;;;;;26.98;13.20;;;-0.20;99.90;;;;;;5132924;27;20051;-82
2022/01/10 08:40:16;;;;;;;33.67;14.27;;;-0.20;99.90;;;;;;5133793;27;20038;-81
2022/01/10 08:42:43;;;;;;;37.13;13.77;;;-0.10;99.90;;;;;;5136455;27;20051;-80
2022/01/10 08:45:09;;;;;;;27.10;15.07;;;-0.10;99.90;;;;;;5133518;27;20478;-81
2022/01/10 08:47:36;;;;;;;34.97;15.60;;;0.00;99.90;;;;;;5135421;27;20050;-80
2022/01/10 08:50:02;;;;;;;38.08;16.02;;;0.10;99.90;;;;;;5133418;27;20046;-80
2022/01/10 08:52:29;;;;;;;29.63;14.68;;;0.20;99.90;;;;;;5133457;27;20392;-80
2022/01/10 08:54:55;;;;;;;37.58;14.98;;;0.30;99.90;;;;;;5133538;27;20046;-80
2022/01/10 08:57:22;;;;;;;29.05;14.77;;;0.30;99.90;;;;;;5133885;27;20050;-80
2022/01/10 08:59:48;;;;;;;32.45;16.20;;;0.40;99.90;;;;;;5134914;27;20056;-81
2022/01/10 09:02:15;;;;;;;30.88;16.10;;;0.50;99.90;;;;;;5136129;27;20049;-81
2022/01/10 09:04:42;;;;;;;38.97;16.20;;;0.60;99.90;;;;;;5134696;27;20057;-80
2022/01/10 09:07:09;;;;;;;37.70;15.70;;;0.70;99.90;;;;;;5132714;27;20039;-79
2022/01/10 09:09:35;;;;;;;30.00;16.80;;;0.80;99.90;;;;;;5132247;27;20054;-80
2022/01/10 09:12:02;;;;;;;31.83;18.30;;;0.90;99.90;;;;;;5132522;27;20047;-80
2022/01/10 09:14:28;;;;;;;35.42;18.35;;;1.00;99.90;;;;;;5151045;27;20035;-80
2022/01/10 09:16:55;;;;;;;28.60;17.15;;;1.10;99.90;;;;;;5132151;27;20053;-79
2022/01/10 09:19:22;;;;;;;36.90;17.45;;;1.20;99.90;;;;;;5134025;27;20046;-80
2022/01/10 09:21:48;;;;;;;31.70;18.40;;;1.30;99.90;;;;;;5133069;27;20054;-80
2022/01/10 09:24:15;;;;;;;33.38;16.90;;;1.40;99.90;;;;;;5135883;27;20039;-80
2022/01/10 09:26:41;;;;;;;33.08;19.63;;;1.40;99.90;;;;;;5133565;27;20063;-79
2022/01/10 09:29:08;;;;;;;34.80;20.80;;;1.60;99.90;;;;;;5142188;27;20055;-79
2022/01/10 09:31:34;;;;;;;41.83;19.42;;;1.60;99.90;;;;;;5129738;27;20042;-79
2022/01/10 09:34:01;;;;;;;32.40;17.80;;;1.70;99.90;;;;;;5127962;27;20395;-80
2022/01/10 09:36:28;;;;;;;36.65;19.40;;;1.70;99.90;;;;;;5125219;27;20100;-80
2022/01/10 09:38:54;;;;;;;33.75;18.75;;;1.80;99.90;;;;;;5130856;27;20778;-80
2022/01/10 09:41:21;;;;;;;39.75;20.80;;;1.90;99.90;;;;;;5127594;27;20093;-81
2022/01/10 09:43:48;;;;;;;31.40;19.75;;;2.00;99.90;;;;;;5151710;27;20062;-81
2022/01/10 09:46:14;;;;;;;39.85;21.40;;;2.10;99.90;;;;;;5141137;27;20122;-80
2022/01/10 09:48:41;;;;;;;39.08;20.80;;;2.20;99.90;;;;;;5124258;27;20432;-80
2022/01/10 09:51:09;;;;;;;38.03;20.92;;;2.20;99.90;;;;;;5124597;27;20500;-79
2022/01/10 09:53:36;;;;;;;43.75;22.50;;;2.30;99.90;;;;;;5124829;27;20047;-79
2022/01/10 09:56:02;;;;;;;30.48;19.73;;;2.40;99.90;;;;;;5149933;27;20061;-80
2022/01/10 09:58:29;;;;;;;50.80;22.52;;;2.40;99.90;;;;;;5123320;27;20051;-79
2022/01/10 10:00:55;;;;;;;33.03;20.83;;;2.50;99.90;;;;;;5131965;27;20055;-81
2022/01/10 10:03:22;;;;;;;36.47;21.65;;;2.50;99.90;;;;;;5136747;27;20055;-80
2022/01/10 10:05:49;;;;;;;37.97;21.23;;;2.60;99.90;;;;;;5122384;27;20089;-80
2022/01/10 10:08:15;;;;;;;41.83;21.40;;;2.70;99.90;;;;;;5117163;27;20312;-81
2022/01/10 10:10:42;;;;;;;49.25;22.45;;;2.80;99.90;;;;;;5130878;27;20540;-80
2022/01/10 10:13:08;;;;;;;35.30;21.10;;;2.90;99.90;;;;;;5127159;27;20502;-80
2022/01/10 10:15:36;;;;;;;40.00;20.98;;;3.00;99.90;;;;;;5122160;27;20131;-80
2022/01/10 10:18:08;;;;;;;35.88;20.77;;;3.00;99.90;;;;;;5123090;27;20051;-80
2022/01/10 10:20:34;;;;;;;36.35;21.25;;;3.00;99.90;;;;;;5115856;27;20051;-80
2022/01/10 10:23:01;;;;;;;37.67;19.08;;;3.10;99.90;;;;;;5123085;27;20050;-80
2022/01/10 10:25:27;;;;;;;36.47;20.42;;;3.10;99.90;;;;;;5125059;27;20043;-80
2022/01/10 10:27:54;;;;;;;35.42;20.90;;;3.10;99.90;;;;;;5131125;27;20047;-80
2022/01/10 10:30:21;;;;;;;40.45;21.40;;;3.20;99.90;;;;;;5123520;27;20055;-80
2022/01/10 10:32:47;;;;;;;37.90;20.58;;;3.20;99.90;;;;;;5123322;27;20050;-80
2022/01/10 10:35:14;;;;;;;40.95;21.70;;;3.30;99.90;;;;;;5117635;27;20506;-81
2022/01/10 10:37:41;;;;;;;44.42;22.85;;;3.40;99.90;;;;;;5126986;27;20072;-80
2022/01/10 10:40:09;;;;;;;41.08;22.25;;;3.40;99.90;;;;;;5129348;27;20051;-80
2022/01/10 10:42:37;;;;;;;43.08;24.23;;;3.50;99.90;;;;;;5122482;27;20049;-81
2022/01/10 10:45:04;;;;;;;39.00;21.83;;;3.60;99.90;;;;;;5115650;27;20046;-81
2022/01/10 10:47:31;;;;;;;39.58;22.40;;;3.60;99.90;;;;;;5128666;27;20063;-81
2022/01/10 10:49:57;;;;;;;35.75;22.65;;;3.70;99.90;;;;;;5121706;27;20055;-81
2022/01/10 10:52:24;;;;;;;44.90;21.65;;;3.70;99.90;;;;;;5124345;27;20047;-81
2022/01/10 10:54:50;;;;;;;42.75;20.50;;;3.60;99.90;;;;;;5123270;27;20051;-81
2022/01/10 10:57:17;;;;;;;33.30;20.50;;;3.60;99.90;;;;;;5118316;27;20047;-80
2022/01/10 10:59:44;;;;;;;35.05;22.80;;;3.70;99.90;;;;;;5126780;27;20046;-81
2022/01/10 11:02:11;;;;;;;41.53;22.40;;;3.70;99.90;;;;;;5127249;27;20525;-81
2022/01/10 11:04:37;;;;;;;33.92;21.42;;;3.80;99.90;;;;;;5129644;27;20565;-81
2022/01/10 11:07:04;;;;;;;34.88;21.70;;;3.90;99.90;;;;;;5127897;27;20054;-81
2022/01/10 11:09:30;;;;;;;38.78;22.05;;;3.90;99.90;;;;;;5127174;27;20051;-81
2022/01/10 11:11:57;;;;;;;37.85;21.45;;;4.00;99.90;;;;;;5117388;27;20039;-81
2022/01/10 11:14:24;;;;;;;38.63;23.50;;;4.10;99.90;;;;;;5118449;27;20062;-80
2022/01/10 11:16:52;;;;;;;32.58;21.52;;;4.20;99.90;;;;;;5125990;27;20463;-81
2022/01/10 11:19:19;;;;;;;42.03;23.17;;;4.20;99.90;;;;;;5127642;27;20513;-81
2022/01/10 11:21:46;;;;;;;43.25;22.85;;;4.30;99.90;;;;;;5126053;27;20084;-81
2022/01/10 11:24:13;;;;;;;39.17;22.90;;;4.40;99.90;;;;;;5121666;27;20050;-81
2022/01/10 11:26:39;;;;;;;51.80;25.10;;;4.50;99.90;;;;;;5130221;27;20536;-81
2022/01/10 11:29:06;;;;;;;34.15;23.38;;;4.50;99.90;;;;;;5133182;27;20055;-80
2022/01/10 11:31:32;;;;;;;41.50;23.30;;;4.50;99.90;;;;;;5139084;27;20055;-81
2022/01/10 11:33:59;;;;;;;35.42;21.92;;;4.60;99.90;;;;;;5115626;28;20058;-81
2022/01/10 11:36:25;;;;;;;31.42;21.17;;;4.70;99.90;;;;;;5120132;27;20047;-81
2022/01/10 11:38:52;;;;;;;40.17;22.10;;;4.70;99.90;;;;;;5142673;27;20058;-81
2022/01/10 11:41:19;;;;;;;35.03;21.77;;;4.80;99.90;;;;;;5122909;27;20399;-81
2022/01/10 11:43:46;;;;;;;39.08;22.50;;;4.80;99.90;;;;;;5113004;28;20051;-81
2022/01/10 11:46:12;;;;;;;46.42;22.67;;;4.90;99.90;;;;;;5116064;27;20627;-81
2022/01/10 11:48:39;;;;;;;32.58;21.23;;;5.00;99.90;;;;;;5125137;27;20421;-81
2022/01/10 11:51:05;;;;;;;30.95;20.58;;;5.00;99.90;;;;;;5116062;28;20481;-82
2022/01/10 11:53:32;;;;;;;32.80;21.63;;;5.00;99.90;;;;;;5115704;27;20043;-81
2022/01/10 11:55:59;;;;;;;39.03;22.23;;;5.10;99.90;;;;;;5118148;28;20440;-81
2022/01/10 11:58:25;;;;;;;36.88;22.90;;;5.10;99.90;;;;;;5116246;27;20149;-81
2022/01/10 12:00:53;;;;;;;28.15;19.90;;;5.20;99.90;;;;;;5123502;28;20478;-81
2022/01/10 12:03:19;;;;;;;36.17;23.48;;;5.20;99.90;;;;;;5125247;27;20058;-82
2022/01/10 12:05:46;;;;;;;40.88;23.65;;;5.30;99.90;;;;;;5125070;28;20051;-80
2022/01/10 12:08:12;;;;;;;32.63;21.55;;;5.30;99.90;;;;;;5136479;27;20050;-82
2022/01/10 12:10:39;;;;;;;33.58;21.98;;;5.40;99.90;;;;;;5121776;28;20132;-81
2022/01/10 12:13:07;;;;;;;37.42;22.73;;;5.50;99.90;;;;;;5118397;28;20553;-81
2022/01/10 12:15:34;;;;;;;31.70;20.85;;;5.50;99.90;;;;;;5125777;27;20053;-82
2022/01/10 12:18:00;;;;;;;39.25;22.45;;;5.60;99.90;;;;;;5127591;27;20596;-82
2022/01/10 12:20:27;;;;;;;32.03;20.55;;;5.60;99.90;;;;;;5130924;27;20109;-82
2022/01/10 12:22:53;;;;;;;47.25;25.10;;;5.60;99.90;;;;;;5127914;27;20055;-82
2022/01/10 12:25:20;;;;;;;38.60;22.23;;;5.70;99.90;;;;;;5124146;27;20501;-82
2022/01/10 12:27:46;;;;;;;31.42;21.65;;;5.70;99.90;;;;;;5132868;27;20054;-82
2022/01/10 12:30:13;;;;;;;49.42;19.55;;;5.70;99.90;;;;;;5130299;27;20057;-82
2022/01/10 12:32:40;;;;;;;33.40;18.55;;;5.70;99.90;;;;;;5127098;27;20043;-82
2022/01/10 12:35:06;;;;;;;40.78;20.23;;;5.70;99.90;;;;;;5127541;27;20134;-82
2022/01/10 12:37:33;;;;;;;39.70;19.45;;;5.60;99.90;;;;;;5131897;27;20104;-83
2022/01/10 12:39:59;;;;;;;32.65;18.92;;;5.70;99.90;;;;;;5131486;27;20053;-82
2022/01/10 12:42:26;;;;;;;32.30;17.85;;;5.60;99.90;;;;;;5129320;27;20062;-82
2022/01/10 12:44:53;;;;;;;40.00;19.60;;;5.60;99.90;;;;;;5132229;27;20050;-81